sensor_id;sensor_type;location;lat;lon;timestamp;temperature;humidity
26721;HTU21D;15950;51.112;6.966;2023-07-20T00:00:30;19.62;63.82
26721;HTU21D;15950;51.112;6.966;2023-07-20T00:03:30;19.69;63.66
26721;HTU21D;15950;51.112;6.966;2023-07-20T00:06:30;19.76;63.90
26721;HTU21D;15950;51.112;6.966;2023-07-20T00:09:30;19.66;64.39
26721;HTU21D;15950;51.112;6.966;2023-07-20T00:12:30;19.48;65.22
26721;HTU21D;15950;51.112;6.966;2023-07-20T00:15:30;19.44;65.37
26721;HTU21D;15950;51.112;6.966;2023-07-20T00:18:30;19.45;65.55
26721;HTU21D;15950;51.112;6.966;2023-07-20T00:21:30;19.37;65.85
26721;HTU21D;15950;51.112;6.966;2023-07-20T00:24:30;19.36;65.72
26721;HTU21D;15950;51.112;6.966;2023-07-20T00:27:30;18.95;66.88
26721;HTU21D;15950;51.112;6.966;2023-07-20T00:30:30;19.18;66.44
26721;HTU21D;15950;51.112;6.966;2023-07-20T00:33:30;19.30;66.05
26721;HTU21D;15950;51.112;6.966;2023-07-20T00:36:30;19.23;66.41
26721;HTU21D;15950;51.112;6.966;2023-07-20T00:39:30;19.10;66.62
26721;HTU21D;15950;51.112;6.966;2023-07-20T00:42:31;19.17;66.69
26721;HTU21D;15950;51.112;6.966;2023-07-20T00:45:31;19.21;66.45
26721;HTU21D;15950;51.112;6.966;2023-07-20T00:48:31;19.16;66.80
26721;HTU21D;15950;51.112;6.966;2023-07-20T00:51:30;19.08;67.27
26721;HTU21D;15950;51.112;6.966;2023-07-20T00:54:30;19.05;67.49
26721;HTU21D;15950;51.112;6.966;2023-07-20T00:57:30;18.93;67.94
26721;HTU21D;15950;51.112;6.966;2023-07-20T01:00:30;18.93;67.96
26721;HTU21D;15950;51.112;6.966;2023-07-20T01:03:30;18.95;67.81
26721;HTU21D;15950;51.112;6.966;2023-07-20T01:15:30;18.94;67.94
26721;HTU21D;15950;51.112;6.966;2023-07-20T01:18:30;18.90;68.46
26721;HTU21D;15950;51.112;6.966;2023-07-20T01:21:36;18.92;68.39
26721;HTU21D;15950;51.112;6.966;2023-07-20T01:33:31;18.47;70.47
26721;HTU21D;15950;51.112;6.966;2023-07-20T01:36:36;18.26;71.52
26721;HTU21D;15950;51.112;6.966;2023-07-20T01:39:31;18.25;71.71
26721;HTU21D;15950;51.112;6.966;2023-07-20T01:42:30;18.23;71.78
26721;HTU21D;15950;51.112;6.966;2023-07-20T01:45:30;18.20;72.06
26721;HTU21D;15950;51.112;6.966;2023-07-20T01:48:30;18.14;72.31
26721;HTU21D;15950;51.112;6.966;2023-07-20T01:51:30;18.10;72.61
26721;HTU21D;15950;51.112;6.966;2023-07-20T01:54:30;18.02;72.97
26721;HTU21D;15950;51.112;6.966;2023-07-20T01:57:30;17.95;73.15
26721;HTU21D;15950;51.112;6.966;2023-07-20T02:00:30;17.93;72.90
26721;HTU21D;15950;51.112;6.966;2023-07-20T02:03:30;17.85;73.32
26721;HTU21D;15950;51.112;6.966;2023-07-20T02:06:31;18.12;72.80
26721;HTU21D;15950;51.112;6.966;2023-07-20T02:09:30;18.04;73.25
26721;HTU21D;15950;51.112;6.966;2023-07-20T02:12:30;18.02;73.63
26721;HTU21D;15950;51.112;6.966;2023-07-20T02:15:30;18.03;73.54
26721;HTU21D;15950;51.112;6.966;2023-07-20T02:18:30;18.10;73.27
26721;HTU21D;15950;51.112;6.966;2023-07-20T02:21:30;18.33;72.06
26721;HTU21D;15950;51.112;6.966;2023-07-20T02:24:30;18.11;72.93
26721;HTU21D;15950;51.112;6.966;2023-07-20T02:27:30;18.08;73.43
26721;HTU21D;15950;51.112;6.966;2023-07-20T02:30:30;18.13;73.07
26721;HTU21D;15950;51.112;6.966;2023-07-20T02:33:30;18.04;73.80
26721;HTU21D;15950;51.112;6.966;2023-07-20T02:36:30;17.77;75.09
26721;HTU21D;15950;51.112;6.966;2023-07-20T02:39:30;17.78;74.67
26721;HTU21D;15950;51.112;6.966;2023-07-20T02:42:31;17.96;73.83
26721;HTU21D;15950;51.112;6.966;2023-07-20T02:45:30;17.87;74.47
26721;HTU21D;15950;51.112;6.966;2023-07-20T02:48:30;17.89;74.25
26721;HTU21D;15950;51.112;6.966;2023-07-20T02:51:30;17.64;75.62
26721;HTU21D;15950;51.112;6.966;2023-07-20T02:54:30;17.80;74.92
26721;HTU21D;15950;51.112;6.966;2023-07-20T02:57:30;17.89;74.58
26721;HTU21D;15950;51.112;6.966;2023-07-20T03:00:30;17.81;75.32
26721;HTU21D;15950;51.112;6.966;2023-07-20T03:03:30;17.93;74.43
26721;HTU21D;15950;51.112;6.966;2023-07-20T03:06:30;17.93;73.99
26721;HTU21D;15950;51.112;6.966;2023-07-20T03:09:30;17.83;75.15
26721;HTU21D;15950;51.112;6.966;2023-07-20T03:12:30;17.73;75.79
26721;HTU21D;15950;51.112;6.966;2023-07-20T03:15:30;17.66;76.28
26721;HTU21D;15950;51.112;6.966;2023-07-20T03:18:30;17.55;76.76
26721;HTU21D;15950;51.112;6.966;2023-07-20T03:21:30;17.77;75.97
26721;HTU21D;15950;51.112;6.966;2023-07-20T03:24:30;17.88;75.22
26721;HTU21D;15950;51.112;6.966;2023-07-20T03:27:30;17.68;75.38
26721;HTU21D;15950;51.112;6.966;2023-07-20T03:30:30;17.85;75.29
26721;HTU21D;15950;51.112;6.966;2023-07-20T03:33:31;17.94;75.16
26721;HTU21D;15950;51.112;6.966;2023-07-20T03:36:30;17.73;75.73
26721;HTU21D;15950;51.112;6.966;2023-07-20T03:39:30;18.00;74.74
26721;HTU21D;15950;51.112;6.966;2023-07-20T03:42:30;17.95;74.90
26721;HTU21D;15950;51.112;6.966;2023-07-20T03:45:30;17.87;75.46
26721;HTU21D;15950;51.112;6.966;2023-07-20T03:48:30;17.88;75.20
26721;HTU21D;15950;51.112;6.966;2023-07-20T03:51:30;17.97;75.12
26721;HTU21D;15950;51.112;6.966;2023-07-20T03:54:30;17.56;76.49
26721;HTU21D;15950;51.112;6.966;2023-07-20T03:57:30;17.86;75.79
26721;HTU21D;15950;51.112;6.966;2023-07-20T04:00:30;17.84;75.64
26721;HTU21D;15950;51.112;6.966;2023-07-20T04:03:30;17.80;75.54
26721;HTU21D;15950;51.112;6.966;2023-07-20T04:06:30;17.85;75.66
26721;HTU21D;15950;51.112;6.966;2023-07-20T04:09:32;17.57;76.14
26721;HTU21D;15950;51.112;6.966;2023-07-20T04:12:30;17.64;76.54
26721;HTU21D;15950;51.112;6.966;2023-07-20T04:15:30;17.66;76.63
26721;HTU21D;15950;51.112;6.966;2023-07-20T04:18:30;17.51;77.42
26721;HTU21D;15950;51.112;6.966;2023-07-20T04:21:30;17.68;76.65
26721;HTU21D;15950;51.112;6.966;2023-07-20T04:24:30;17.59;77.17
26721;HTU21D;15950;51.112;6.966;2023-07-20T04:27:30;17.45;77.59
26721;HTU21D;15950;51.112;6.966;2023-07-20T04:30:30;17.50;77.50
26721;HTU21D;15950;51.112;6.966;2023-07-20T04:33:30;17.59;77.39
26721;HTU21D;15950;51.112;6.966;2023-07-20T04:36:31;17.62;76.96
26721;HTU21D;15950;51.112;6.966;2023-07-20T04:39:30;17.34;78.79
26721;HTU21D;15950;51.112;6.966;2023-07-20T04:42:30;17.55;77.72
26721;HTU21D;15950;51.112;6.966;2023-07-20T04:45:30;17.69;77.08
26721;HTU21D;15950;51.112;6.966;2023-07-20T04:48:30;17.52;77.61
26721;HTU21D;15950;51.112;6.966;2023-07-20T04:51:30;17.51;77.72
26721;HTU21D;15950;51.112;6.966;2023-07-20T04:54:30;17.53;77.79
26721;HTU21D;15950;51.112;6.966;2023-07-20T04:57:30;17.45;78.24
26721;HTU21D;15950;51.112;6.966;2023-07-20T05:00:32;17.44;78.50
26721;HTU21D;15950;51.112;6.966;2023-07-20T05:03:30;17.43;78.63
26721;HTU21D;15950;51.112;6.966;2023-07-20T05:06:30;17.21;79.56
26721;HTU21D;15950;51.112;6.966;2023-07-20T05:09:30;17.52;78.25
26721;HTU21D;15950;51.112;6.966;2023-07-20T05:12:30;17.55;78.14
26721;HTU21D;15950;51.112;6.966;2023-07-20T05:15:33;17.66;77.64
26721;HTU21D;15950;51.112;6.966;2023-07-20T05:18:30;17.55;77.84
26721;HTU21D;15950;51.112;6.966;2023-07-20T05:21:30;17.47;78.56
26721;HTU21D;15950;51.112;6.966;2023-07-20T05:24:30;17.41;78.98
26721;HTU21D;15950;51.112;6.966;2023-07-20T05:27:30;17.35;78.86
26721;HTU21D;15950;51.112;6.966;2023-07-20T05:30:30;17.44;78.59
26721;HTU21D;15950;51.112;6.966;2023-07-20T05:33:30;17.48;78.63
26721;HTU21D;15950;51.112;6.966;2023-07-20T05:36:30;17.33;78.53
26721;HTU21D;15950;51.112;6.966;2023-07-20T05:39:32;17.42;78.86
26721;HTU21D;15950;51.112;6.966;2023-07-20T05:42:30;17.54;78.46
26721;HTU21D;15950;51.112;6.966;2023-07-20T05:45:30;17.35;79.27
26721;HTU21D;15950;51.112;6.966;2023-07-20T05:48:30;17.44;78.91
26721;HTU21D;15950;51.112;6.966;2023-07-20T05:51:30;17.44;78.81
26721;HTU21D;15950;51.112;6.966;2023-07-20T05:54:30;17.58;78.40
26721;HTU21D;15950;51.112;6.966;2023-07-20T05:57:30;17.74;77.79
26721;HTU21D;15950;51.112;6.966;2023-07-20T06:00:30;17.83;77.35
26721;HTU21D;15950;51.112;6.966;2023-07-20T06:03:30;17.88;77.02
26721;HTU21D;15950;51.112;6.966;2023-07-20T06:06:30;17.81;77.13
26721;HTU21D;15950;51.112;6.966;2023-07-20T06:09:30;17.70;77.47
26721;HTU21D;15950;51.112;6.966;2023-07-20T06:12:30;17.86;77.22
26721;HTU21D;15950;51.112;6.966;2023-07-20T06:15:33;17.97;76.95
26721;HTU21D;15950;51.112;6.966;2023-07-20T06:18:30;17.84;77.50
26721;HTU21D;15950;51.112;6.966;2023-07-20T06:21:30;18.00;76.77
26721;HTU21D;15950;51.112;6.966;2023-07-20T06:24:30;18.01;76.73
26721;HTU21D;15950;51.112;6.966;2023-07-20T06:27:30;18.09;76.47
26721;HTU21D;15950;51.112;6.966;2023-07-20T06:30:30;17.91;76.98
26721;HTU21D;15950;51.112;6.966;2023-07-20T06:33:30;17.97;76.76
26721;HTU21D;15950;51.112;6.966;2023-07-20T06:36:30;18.05;76.49
26721;HTU21D;15950;51.112;6.966;2023-07-20T06:39:30;18.07;76.41
26721;HTU21D;15950;51.112;6.966;2023-07-20T06:42:30;18.12;76.40
26721;HTU21D;15950;51.112;6.966;2023-07-20T06:45:30;18.12;76.52
26721;HTU21D;15950;51.112;6.966;2023-07-20T06:48:30;18.28;75.30
26721;HTU21D;15950;51.112;6.966;2023-07-20T06:51:30;18.13;75.92
26721;HTU21D;15950;51.112;6.966;2023-07-20T06:54:30;18.24;74.91
26721;HTU21D;15950;51.112;6.966;2023-07-20T06:57:30;18.28;74.67
26721;HTU21D;15950;51.112;6.966;2023-07-20T07:00:30;18.14;75.67
26721;HTU21D;15950;51.112;6.966;2023-07-20T07:03:30;18.40;75.04
26721;HTU21D;15950;51.112;6.966;2023-07-20T07:06:30;18.07;76.19
26721;HTU21D;15950;51.112;6.966;2023-07-20T07:12:44;18.42;75.25
26721;HTU21D;15950;51.112;6.966;2023-07-20T07:18:58;18.59;73.46
26721;HTU21D;15950;51.112;6.966;2023-07-20T07:21:58;18.39;73.68
26721;HTU21D;15950;51.112;6.966;2023-07-20T07:24:58;18.70;73.54
26721;HTU21D;15950;51.112;6.966;2023-07-20T07:31:12;18.60;73.34
26721;HTU21D;15950;51.112;6.966;2023-07-20T07:37:26;19.01;71.75
26721;HTU21D;15950;51.112;6.966;2023-07-20T07:43:40;18.95;70.87
26721;HTU21D;15950;51.112;6.966;2023-07-20T07:49:54;18.82;69.96
26721;HTU21D;15950;51.112;6.966;2023-07-20T07:56:08;18.69;68.85
26721;HTU21D;15950;51.112;6.966;2023-07-20T08:02:22;19.42;65.98
26721;HTU21D;15950;51.112;6.966;2023-07-20T08:08:36;19.57;66.33
26721;HTU21D;15950;51.112;6.966;2023-07-20T08:14:51;19.86;64.67
26721;HTU21D;15950;51.112;6.966;2023-07-20T08:21:04;19.77;62.57
26721;HTU21D;15950;51.112;6.966;2023-07-20T08:27:18;19.79;63.30
26721;HTU21D;15950;51.112;6.966;2023-07-20T08:33:32;19.86;61.83
26721;HTU21D;15950;51.112;6.966;2023-07-20T08:39:46;19.54;62.67
26721;HTU21D;15950;51.112;6.966;2023-07-20T08:46:00;19.98;62.34
26721;HTU21D;15950;51.112;6.966;2023-07-20T08:52:14;20.09;60.82
26721;HTU21D;15950;51.112;6.966;2023-07-20T08:58:28;20.24;60.96
26721;HTU21D;15950;51.112;6.966;2023-07-20T09:04:42;20.54;59.93
26721;HTU21D;15950;51.112;6.966;2023-07-20T09:10:56;20.71;57.84
26721;HTU21D;15950;51.112;6.966;2023-07-20T09:17:13;20.34;58.22
26721;HTU21D;15950;51.112;6.966;2023-07-20T09:23:32;20.57;57.82
26721;HTU21D;15950;51.112;6.966;2023-07-20T09:35:52;20.76;57.97
26721;HTU21D;15950;51.112;6.966;2023-07-20T09:38:52;20.63;57.61
26721;HTU21D;15950;51.112;6.966;2023-07-20T09:41:52;20.66;57.10
26721;HTU21D;15950;51.112;6.966;2023-07-20T09:48:06;21.07;56.69
26721;HTU21D;15950;51.112;6.966;2023-07-20T09:51:07;20.75;55.86
26721;HTU21D;15950;51.112;6.966;2023-07-20T09:54:06;20.73;56.25
26721;HTU21D;15950;51.112;6.966;2023-07-20T09:57:09;20.64;56.13
26721;HTU21D;15950;51.112;6.966;2023-07-20T10:00:07;20.84;55.89
26721;HTU21D;15950;51.112;6.966;2023-07-20T10:03:06;20.97;55.82
26721;HTU21D;15950;51.112;6.966;2023-07-20T10:06:08;20.82;55.69
26721;HTU21D;15950;51.112;6.966;2023-07-20T10:09:06;20.52;56.09
26721;HTU21D;15950;51.112;6.966;2023-07-20T10:12:07;20.47;56.84
26721;HTU21D;15950;51.112;6.966;2023-07-20T10:21:07;20.51;54.84
26721;HTU21D;15950;51.112;6.966;2023-07-20T10:24:06;20.77;54.49
26721;HTU21D;15950;51.112;6.966;2023-07-20T10:27:06;20.92;54.14
26721;HTU21D;15950;51.112;6.966;2023-07-20T10:30:06;21.34;54.04
26721;HTU21D;15950;51.112;6.966;2023-07-20T10:33:06;21.09;53.04
26721;HTU21D;15950;51.112;6.966;2023-07-20T10:36:06;21.05;53.42
26721;HTU21D;15950;51.112;6.966;2023-07-20T10:39:06;21.08;53.37
26721;HTU21D;15950;51.112;6.966;2023-07-20T10:42:10;21.20;52.94
26721;HTU21D;15950;51.112;6.966;2023-07-20T10:45:06;21.18;51.72
26721;HTU21D;15950;51.112;6.966;2023-07-20T10:51:12;21.38;50.38
26721;HTU21D;15950;51.112;6.966;2023-07-20T10:54:08;21.40;50.41
26721;HTU21D;15950;51.112;6.966;2023-07-20T11:00:11;21.46;50.59
26721;HTU21D;15950;51.112;6.966;2023-07-20T11:03:06;21.40;49.17
26721;HTU21D;15950;51.112;6.966;2023-07-20T11:12:10;21.80;50.05
26721;HTU21D;15950;51.112;6.966;2023-07-20T11:15:06;22.06;50.11
26721;HTU21D;15950;51.112;6.966;2023-07-20T11:18:14;21.87;49.82
26721;HTU21D;15950;51.112;6.966;2023-07-20T11:21:08;22.02;49.66
26721;HTU21D;15950;51.112;6.966;2023-07-20T11:24:06;21.85;49.06
26721;HTU21D;15950;51.112;6.966;2023-07-20T11:27:06;21.88;48.41
26721;HTU21D;15950;51.112;6.966;2023-07-20T11:33:08;21.46;50.07
26721;HTU21D;15950;51.112;6.966;2023-07-20T11:36:06;21.33;50.66
26721;HTU21D;15950;51.112;6.966;2023-07-20T11:39:06;21.31;50.80
26721;HTU21D;15950;51.112;6.966;2023-07-20T11:42:06;21.40;50.33
26721;HTU21D;15950;51.112;6.966;2023-07-20T11:45:06;21.51;50.22
26721;HTU21D;15950;51.112;6.966;2023-07-20T11:48:06;21.62;50.27
26721;HTU21D;15950;51.112;6.966;2023-07-20T11:51:06;21.53;49.76
26721;HTU21D;15950;51.112;6.966;2023-07-20T11:54:08;21.40;49.84
26721;HTU21D;15950;51.112;6.966;2023-07-20T11:57:06;21.57;49.58
26721;HTU21D;15950;51.112;6.966;2023-07-20T12:00:06;21.74;48.86
26721;HTU21D;15950;51.112;6.966;2023-07-20T12:03:06;21.74;48.79
26721;HTU21D;15950;51.112;6.966;2023-07-20T12:06:07;21.92;47.29
26721;HTU21D;15950;51.112;6.966;2023-07-20T12:09:06;21.96;47.15
26721;HTU21D;15950;51.112;6.966;2023-07-20T12:12:11;22.00;46.83
26721;HTU21D;15950;51.112;6.966;2023-07-20T12:15:14;21.90;47.16
26721;HTU21D;15950;51.112;6.966;2023-07-20T12:18:06;21.98;46.98
26721;HTU21D;15950;51.112;6.966;2023-07-20T12:21:06;22.05;46.61
26721;HTU21D;15950;51.112;6.966;2023-07-20T12:24:06;21.82;46.64
26721;HTU21D;15950;51.112;6.966;2023-07-20T12:27:06;21.90;46.51
26721;HTU21D;15950;51.112;6.966;2023-07-20T12:30:07;22.04;46.85
26721;HTU21D;15950;51.112;6.966;2023-07-20T12:33:06;21.67;46.53
26721;HTU21D;15950;51.112;6.966;2023-07-20T12:36:06;21.84;46.09
26721;HTU21D;15950;51.112;6.966;2023-07-20T12:39:06;21.90;46.42
26721;HTU21D;15950;51.112;6.966;2023-07-20T12:42:06;22.12;46.86
26721;HTU21D;15950;51.112;6.966;2023-07-20T12:45:06;21.80;47.52
26721;HTU21D;15950;51.112;6.966;2023-07-20T12:48:06;22.00;46.99
26721;HTU21D;15950;51.112;6.966;2023-07-20T12:51:06;21.59;47.13
26721;HTU21D;15950;51.112;6.966;2023-07-20T12:54:06;21.88;47.52
26721;HTU21D;15950;51.112;6.966;2023-07-20T12:57:06;21.65;46.47
26721;HTU21D;15950;51.112;6.966;2023-07-20T13:00:10;21.83;46.70
26721;HTU21D;15950;51.112;6.966;2023-07-20T13:03:07;21.53;46.42
26721;HTU21D;15950;51.112;6.966;2023-07-20T13:06:06;21.52;46.74
26721;HTU21D;15950;51.112;6.966;2023-07-20T13:09:06;21.67;47.18
26721;HTU21D;15950;51.112;6.966;2023-07-20T13:12:06;21.80;47.42
26721;HTU21D;15950;51.112;6.966;2023-07-20T13:15:07;21.83;47.38
26721;HTU21D;15950;51.112;6.966;2023-07-20T13:18:06;21.87;47.33
26721;HTU21D;15950;51.112;6.966;2023-07-20T13:21:06;22.11;47.34
26721;HTU21D;15950;51.112;6.966;2023-07-20T13:24:06;22.05;47.38
26721;HTU21D;15950;51.112;6.966;2023-07-20T13:27:06;22.17;46.93
26721;HTU21D;15950;51.112;6.966;2023-07-20T13:30:06;22.20;47.37
26721;HTU21D;15950;51.112;6.966;2023-07-20T13:33:06;22.10;47.07
26721;HTU21D;15950;51.112;6.966;2023-07-20T13:36:05;21.98;47.44
26721;HTU21D;15950;51.112;6.966;2023-07-20T13:39:05;22.09;46.76
26721;HTU21D;15950;51.112;6.966;2023-07-20T13:42:06;22.26;46.15
26721;HTU21D;15950;51.112;6.966;2023-07-20T13:45:06;22.19;46.54
26721;HTU21D;15950;51.112;6.966;2023-07-20T13:48:05;22.34;46.18
26721;HTU21D;15950;51.112;6.966;2023-07-20T13:51:05;22.35;46.41
26721;HTU21D;15950;51.112;6.966;2023-07-20T13:54:06;22.09;45.71
26721;HTU21D;15950;51.112;6.966;2023-07-20T13:57:06;22.43;46.13
26721;HTU21D;15950;51.112;6.966;2023-07-20T14:00:06;22.34;45.67
26721;HTU21D;15950;51.112;6.966;2023-07-20T14:03:05;22.33;45.46
26721;HTU21D;15950;51.112;6.966;2023-07-20T14:06:05;22.46;45.62
26721;HTU21D;15950;51.112;6.966;2023-07-20T14:09:05;22.47;45.70
26721;HTU21D;15950;51.112;6.966;2023-07-20T14:12:06;22.30;45.46
26721;HTU21D;15950;51.112;6.966;2023-07-20T14:15:06;22.39;45.84
26721;HTU21D;15950;51.112;6.966;2023-07-20T14:18:05;22.35;45.38
26721;HTU21D;15950;51.112;6.966;2023-07-20T14:21:05;22.41;46.26
26721;HTU21D;15950;51.112;6.966;2023-07-20T14:24:05;21.97;46.66
26721;HTU21D;15950;51.112;6.966;2023-07-20T14:27:06;22.08;46.26
26721;HTU21D;15950;51.112;6.966;2023-07-20T14:30:06;22.10;46.89
26721;HTU21D;15950;51.112;6.966;2023-07-20T14:33:05;21.92;47.25
26721;HTU21D;15950;51.112;6.966;2023-07-20T14:36:05;21.88;47.31
26721;HTU21D;15950;51.112;6.966;2023-07-20T14:39:05;21.83;47.29
26721;HTU21D;15950;51.112;6.966;2023-07-20T14:42:06;21.75;47.71
26721;HTU21D;15950;51.112;6.966;2023-07-20T14:45:06;21.80;48.15
26721;HTU21D;15950;51.112;6.966;2023-07-20T14:48:05;21.89;47.80
26721;HTU21D;15950;51.112;6.966;2023-07-20T14:51:05;21.94;47.78
26721;HTU21D;15950;51.112;6.966;2023-07-20T14:54:06;21.72;47.76
26721;HTU21D;15950;51.112;6.966;2023-07-20T14:57:06;21.90;47.83
26721;HTU21D;15950;51.112;6.966;2023-07-20T15:00:06;21.86;48.23
26721;HTU21D;15950;51.112;6.966;2023-07-20T15:03:05;21.95;47.73
26721;HTU21D;15950;51.112;6.966;2023-07-20T15:09:19;22.29;47.77
26721;HTU21D;15950;51.112;6.966;2023-07-20T15:12:19;22.46;46.44
26721;HTU21D;15950;51.112;6.966;2023-07-20T15:15:19;22.33;46.44
26721;HTU21D;15950;51.112;6.966;2023-07-20T15:18:19;22.26;46.42
26721;HTU21D;15950;51.112;6.966;2023-07-20T15:21:19;22.38;46.37
26721;HTU21D;15950;51.112;6.966;2023-07-20T15:24:19;22.19;46.59
26721;HTU21D;15950;51.112;6.966;2023-07-20T15:27:19;22.06;46.30
26721;HTU21D;15950;51.112;6.966;2023-07-20T15:30:19;22.24;47.21
26721;HTU21D;15950;51.112;6.966;2023-07-20T15:33:19;22.36;46.42
26721;HTU21D;15950;51.112;6.966;2023-07-20T15:36:19;22.42;45.65
26721;HTU21D;15950;51.112;6.966;2023-07-20T15:42:34;22.42;46.22
26721;HTU21D;15950;51.112;6.966;2023-07-20T15:45:33;22.48;45.58
26721;HTU21D;15950;51.112;6.966;2023-07-20T15:48:33;22.52;45.60
26721;HTU21D;15950;51.112;6.966;2023-07-20T15:51:37;22.42;45.51
26721;HTU21D;15950;51.112;6.966;2023-07-20T15:54:33;22.35;46.03
26721;HTU21D;15950;51.112;6.966;2023-07-20T15:57:33;22.17;46.15
26721;HTU21D;15950;51.112;6.966;2023-07-20T16:00:33;22.15;46.13
26721;HTU21D;15950;51.112;6.966;2023-07-20T16:03:33;22.16;46.94
26721;HTU21D;15950;51.112;6.966;2023-07-20T16:06:34;22.07;47.25
26721;HTU21D;15950;51.112;6.966;2023-07-20T16:09:33;22.18;46.90
26721;HTU21D;15950;51.112;6.966;2023-07-20T16:12:33;22.25;47.25
26721;HTU21D;15950;51.112;6.966;2023-07-20T16:18:50;22.26;46.13
26721;HTU21D;15950;51.112;6.966;2023-07-20T16:21:47;22.37;46.00
26721;HTU21D;15950;51.112;6.966;2023-07-20T16:24:47;22.30;46.62
26721;HTU21D;15950;51.112;6.966;2023-07-20T16:27:47;22.37;45.95
26721;HTU21D;15950;51.112;6.966;2023-07-20T16:30:47;22.33;46.06
26721;HTU21D;15950;51.112;6.966;2023-07-20T16:33:47;22.37;46.72
26721;HTU21D;15950;51.112;6.966;2023-07-20T16:40:02;22.27;47.19
26721;HTU21D;15950;51.112;6.966;2023-07-20T16:43:02;22.39;46.90
26721;HTU21D;15950;51.112;6.966;2023-07-20T16:46:06;22.23;45.83
26721;HTU21D;15950;51.112;6.966;2023-07-20T16:49:01;22.23;45.48
26721;HTU21D;15950;51.112;6.966;2023-07-20T16:55:15;22.29;45.32
26721;HTU21D;15950;51.112;6.966;2023-07-20T17:01:29;22.33;45.86
26721;HTU21D;15950;51.112;6.966;2023-07-20T17:06:53;22.41;44.67
26721;HTU21D;15950;51.112;6.966;2023-07-20T17:13:07;22.23;44.58
26721;HTU21D;15950;51.112;6.966;2023-07-20T17:19:21;22.27;45.63
26721;HTU21D;15950;51.112;6.966;2023-07-20T17:25:35;22.31;44.84
26721;HTU21D;15950;51.112;6.966;2023-07-20T17:31:49;22.57;45.69
26721;HTU21D;15950;51.112;6.966;2023-07-20T17:38:03;22.21;45.62
26721;HTU21D;15950;51.112;6.966;2023-07-20T17:44:17;22.20;45.07
26721;HTU21D;15950;51.112;6.966;2023-07-20T17:50:31;22.60;44.86
26721;HTU21D;15950;51.112;6.966;2023-07-20T17:54:21;22.50;45.49
26721;HTU21D;15950;51.112;6.966;2023-07-20T18:00:35;22.56;44.26
26721;HTU21D;15950;51.112;6.966;2023-07-20T18:06:49;22.58;45.01
26721;HTU21D;15950;51.112;6.966;2023-07-20T18:13:03;21.90;46.15
26721;HTU21D;15950;51.112;6.966;2023-07-20T18:20:01;22.12;47.55
26721;HTU21D;15950;51.112;6.966;2023-07-20T18:23:01;22.15;47.47
26721;HTU21D;15950;51.112;6.966;2023-07-20T18:26:01;21.96;47.18
26721;HTU21D;15950;51.112;6.966;2023-07-20T18:29:01;21.78;48.70
26721;HTU21D;15950;51.112;6.966;2023-07-20T18:35:15;21.80;48.47
26721;HTU21D;15950;51.112;6.966;2023-07-20T18:38:15;21.50;49.59
26721;HTU21D;15950;51.112;6.966;2023-07-20T18:44:31;21.23;51.71
26721;HTU21D;15950;51.112;6.966;2023-07-20T18:47:29;21.48;51.04
26721;HTU21D;15950;51.112;6.966;2023-07-20T18:50:29;21.40;52.10
26721;HTU21D;15950;51.112;6.966;2023-07-20T18:53:29;21.55;50.72
26721;HTU21D;15950;51.112;6.966;2023-07-20T18:56:29;21.23;52.07
26721;HTU21D;15950;51.112;6.966;2023-07-20T18:59:29;21.16;52.56
26721;HTU21D;15950;51.112;6.966;2023-07-20T19:02:29;21.18;53.25
26721;HTU21D;15950;51.112;6.966;2023-07-20T19:05:29;20.87;54.32
26721;HTU21D;15950;51.112;6.966;2023-07-20T19:08:29;21.12;52.75
26721;HTU21D;15950;51.112;6.966;2023-07-20T19:11:29;21.14;51.85
26721;HTU21D;15950;51.112;6.966;2023-07-20T19:14:29;21.04;52.72
26721;HTU21D;15950;51.112;6.966;2023-07-20T19:17:30;21.06;51.98
26721;HTU21D;15950;51.112;6.966;2023-07-20T19:20:29;20.90;53.56
26721;HTU21D;15950;51.112;6.966;2023-07-20T19:23:30;20.76;54.01
26721;HTU21D;15950;51.112;6.966;2023-07-20T19:26:29;20.93;54.37
26721;HTU21D;15950;51.112;6.966;2023-07-20T19:29:29;20.96;53.67
26721;HTU21D;15950;51.112;6.966;2023-07-20T19:32:29;20.59;54.84
26721;HTU21D;15950;51.112;6.966;2023-07-20T19:35:29;20.36;55.65
26721;HTU21D;15950;51.112;6.966;2023-07-20T19:38:29;20.24;56.52
26721;HTU21D;15950;51.112;6.966;2023-07-20T19:41:29;20.61;55.84
26721;HTU21D;15950;51.112;6.966;2023-07-20T19:44:29;20.65;55.20
26721;HTU21D;15950;51.112;6.966;2023-07-20T19:47:29;20.68;54.48
26721;HTU21D;15950;51.112;6.966;2023-07-20T19:50:29;20.41;55.20
26721;HTU21D;15950;51.112;6.966;2023-07-20T19:53:29;20.09;56.62
26721;HTU21D;15950;51.112;6.966;2023-07-20T19:56:29;20.25;57.00
26721;HTU21D;15950;51.112;6.966;2023-07-20T19:59:30;20.33;55.80
26721;HTU21D;15950;51.112;6.966;2023-07-20T20:02:29;20.12;56.64
26721;HTU21D;15950;51.112;6.966;2023-07-20T20:05:29;19.99;56.95
26721;HTU21D;15950;51.112;6.966;2023-07-20T20:08:29;20.14;56.50
26721;HTU21D;15950;51.112;6.966;2023-07-20T20:11:29;20.26;55.97
26721;HTU21D;15950;51.112;6.966;2023-07-20T20:14:29;20.13;57.11
26721;HTU21D;15950;51.112;6.966;2023-07-20T20:17:29;19.88;57.80
26721;HTU21D;15950;51.112;6.966;2023-07-20T20:20:31;19.98;58.08
26721;HTU21D;15950;51.112;6.966;2023-07-20T20:23:29;19.72;59.28
26721;HTU21D;15950;51.112;6.966;2023-07-20T20:26:29;19.79;59.13
26721;HTU21D;15950;51.112;6.966;2023-07-20T20:29:29;19.96;57.84
26721;HTU21D;15950;51.112;6.966;2023-07-20T20:32:29;19.87;58.64
26721;HTU21D;15950;51.112;6.966;2023-07-20T20:35:30;19.75;58.42
26721;HTU21D;15950;51.112;6.966;2023-07-20T20:38:29;19.94;57.95
26721;HTU21D;15950;51.112;6.966;2023-07-20T20:41:29;19.87;58.28
26721;HTU21D;15950;51.112;6.966;2023-07-20T20:44:29;19.61;58.92
26721;HTU21D;15950;51.112;6.966;2023-07-20T20:47:29;19.63;60.08
26721;HTU21D;15950;51.112;6.966;2023-07-20T20:50:29;19.94;58.67
26721;HTU21D;15950;51.112;6.966;2023-07-20T20:53:29;19.96;58.34
26721;HTU21D;15950;51.112;6.966;2023-07-20T20:56:31;19.79;59.05
26721;HTU21D;15950;51.112;6.966;2023-07-20T20:59:29;20.02;58.41
26721;HTU21D;15950;51.112;6.966;2023-07-20T21:02:29;20.13;57.86
26721;HTU21D;15950;51.112;6.966;2023-07-20T21:05:33;20.05;57.75
26721;HTU21D;15950;51.112;6.966;2023-07-20T21:08:29;19.65;62.77
26721;HTU21D;15950;51.112;6.966;2023-07-20T21:11:29;19.09;64.87
26721;HTU21D;15950;51.112;6.966;2023-07-20T21:14:29;18.73;65.64
26721;HTU21D;15950;51.112;6.966;2023-07-20T21:17:29;18.80;67.09
26721;HTU21D;15950;51.112;6.966;2023-07-20T21:20:29;18.61;66.97
26721;HTU21D;15950;51.112;6.966;2023-07-20T21:23:29;18.63;67.68
26721;HTU21D;15950;51.112;6.966;2023-07-20T21:26:29;18.79;68.26
26721;HTU21D;15950;51.112;6.966;2023-07-20T21:29:29;18.48;70.39
26721;HTU21D;15950;51.112;6.966;2023-07-20T21:32:29;18.55;71.00
26721;HTU21D;15950;51.112;6.966;2023-07-20T21:35:29;18.12;72.94
26721;HTU21D;15950;51.112;6.966;2023-07-20T21:38:29;18.06;73.61
26721;HTU21D;15950;51.112;6.966;2023-07-20T21:41:29;18.07;73.13